Mulhall, Oklahoma
Current Conditions -  °F | °C
As of 6:53 PM on Wednesday 22 Oct 2014 (Local Time) from KGOK Reporting Station
Scattered Clouds Scattered Clouds  
Wind Chill: 73°   Ceiling: Unl
Heat Index: 73°   Visibility: 10mi
Dew Point: 58°   Wind: 6mph
Humidity: 59%   Direction: 170°S
Pressure: 30.08"   Gusts: NA
Location:  36.06°N, 97.41°W
Report Text: KGOK 222353Z AUTO 17005KT 10SM SCT100 23/14 A3008 RMK AO2 SLP180 T02280144 10267 20228 53002
Loading
Personal Weather Stations






























Interactive Weather Map
Tropical Storm Tracking
New forecast layout! Learn more

10-Day Weather Forecast

Advertisements
Track Severe Weather on mobile